createdAt,value
2022-09-12T00:10:00.349Z,70.10
2022-09-12T00:20:08.948Z,70.38
2022-09-12T00:30:12.603Z,71.52
2022-09-12T00:40:15.190Z,71.44
2022-09-12T00:50:27.220Z,71.48
2022-09-12T01:00:30.502Z,71.71
2022-09-12T01:10:43.511Z,72.42
2022-09-12T01:21:05.056Z,72.24
2022-09-12T01:31:40.912Z,72.48
2022-09-12T01:42:10.929Z,72.68
2022-09-12T01:52:33.105Z,73.18
2022-09-12T02:03:02.587Z,72.96
2022-09-12T02:13:15.727Z,73.37
2022-09-12T02:23:32.268Z,73.32
2022-09-12T02:34:04.871Z,73.26
2022-09-12T02:44:09.665Z,72.82
2022-09-12T02:54:15.837Z,72.98
2022-09-12T03:04:57.691Z,73.09
2022-09-12T03:15:10.922Z,72.67
2022-09-12T03:25:31.393Z,72.49
2022-09-12T03:35:33.060Z,72.53
2022-09-12T03:45:36.057Z,72.93
2022-09-12T03:55:39.397Z,73.13
2022-09-12T04:05:41.015Z,73.38
2022-09-12T04:15:42.458Z,73.56
2022-09-12T04:25:44.000Z,73.48
2022-09-12T04:35:45.540Z,73.05
2022-09-12T04:45:47.038Z,73.26
2022-09-12T04:55:48.946Z,72.65
2022-09-12T05:05:53.314Z,72.25
2022-09-12T05:15:59.966Z,72.53
2022-09-12T05:26:03.432Z,71.90
2022-09-12T05:36:09.510Z,71.67
2022-09-12T05:46:22.038Z,70.38
2022-09-12T05:56:26.195Z,70.30
2022-09-12T06:06:29.358Z,69.54
2022-09-12T06:16:32.769Z,68.63
2022-09-12T06:26:34.746Z,65.76
2022-09-12T06:36:42.100Z,63.48
2022-09-12T06:46:44.565Z,61.32
2022-09-12T06:56:46.126Z,60.08
2022-09-12T07:06:48.071Z,59.08
2022-09-12T07:16:49.495Z,56.96
2022-09-12T07:26:50.984Z,53.94
2022-09-12T07:36:52.465Z,52.02
2022-09-12T07:46:53.908Z,51.13
2022-09-12T07:56:55.616Z,49.29
2022-09-12T08:06:57.248Z,46.76
2022-09-12T08:16:58.744Z,46.04
2022-09-12T08:27:00.265Z,45.63
2022-09-12T08:37:02.056Z,42.25
2022-09-12T08:47:25.101Z,31.46
2022-09-12T08:57:26.752Z,23.15
2022-09-12T09:07:42.347Z,17.99
2022-09-12T09:17:49.948Z,15.91
2022-09-12T09:28:12.765Z,15.18
2022-09-12T09:38:54.170Z,14.88
2022-09-12T09:48:59.280Z,14.39
2022-09-12T09:59:26.499Z,14.09
2022-09-12T10:09:33.703Z,14.02
2022-09-12T10:19:40.490Z,14.78
2022-09-12T10:29:48.367Z,13.93
2022-09-12T10:39:56.224Z,13.36
2022-09-12T10:50:28.488Z,13.39
2022-09-12T11:00:34.535Z,13.84
2022-09-12T11:10:51.769Z,20.11
2022-09-12T11:21:09.650Z,25.60
2022-09-12T11:31:24.982Z,27.38
2022-09-12T11:41:37.947Z,28.24
2022-09-12T11:52:11.083Z,28.13
2022-09-12T12:02:20.738Z,29.79
2022-09-12T12:12:27.560Z,28.65
2022-09-12T12:22:29.271Z,27.73
2022-09-12T12:32:30.732Z,26.71
2022-09-12T12:42:35.165Z,27.65
2022-09-12T12:52:51.544Z,27.20
2022-09-12T13:03:08.044Z,26.03
2022-09-12T13:13:09.719Z,26.19
2022-09-12T13:23:26.702Z,27.12
2022-09-12T13:33:51.033Z,27.25
2022-09-12T13:43:52.845Z,25.90
2022-09-12T13:53:58.716Z,26.04
2022-09-12T14:04:18.846Z,26.78
2022-09-12T14:14:38.967Z,26.52
2022-09-12T14:24:40.794Z,26.81
2022-09-12T14:34:42.529Z,28.21
2022-09-12T14:44:58.188Z,29.09
2022-09-12T14:55:23.897Z,29.43
2022-09-12T15:05:27.495Z,29.86
2022-09-12T15:15:28.928Z,31.13
2022-09-12T15:25:30.424Z,32.32
2022-09-12T15:35:33.579Z,32.37
2022-09-12T15:45:35.418Z,32.98
2022-09-12T15:55:37.391Z,33.29
2022-09-12T16:05:38.815Z,34.61
2022-09-12T16:15:40.859Z,35.13
2022-09-12T16:25:42.993Z,36.57
2022-09-12T16:35:44.729Z,38.04
2022-09-12T16:45:46.851Z,39.45
2022-09-12T16:55:49.401Z,40.61
2022-09-12T17:06:01.208Z,42.69
2022-09-12T17:16:07.539Z,44.32
2022-09-12T17:26:10.565Z,46.14
2022-09-12T17:36:17.766Z,47.39
2022-09-12T17:46:19.965Z,48.16
2022-09-12T17:56:21.487Z,50.51
2022-09-12T18:06:24.079Z,52.31
2022-09-12T18:16:26.684Z,53.82
2022-09-12T18:26:29.773Z,54.59
2022-09-12T18:36:31.703Z,56.02
2022-09-12T18:46:34.889Z,55.96
2022-09-12T18:56:38.229Z,57.07
2022-09-12T19:06:42.964Z,57.35
2022-09-12T19:16:44.735Z,57.93
2022-09-12T19:26:46.293Z,58.48
2022-09-12T19:36:47.963Z,58.71
2022-09-12T19:46:49.685Z,58.54
2022-09-12T19:56:51.308Z,59.32
2022-09-12T20:06:52.782Z,60.41
2022-09-12T20:16:54.264Z,61.24
2022-09-12T20:26:57.703Z,61.44
2022-09-12T20:36:59.253Z,62.00
2022-09-12T20:47:00.786Z,62.40
2022-09-12T20:57:02.400Z,62.81
2022-09-12T21:07:03.941Z,62.93
2022-09-12T21:17:05.674Z,63.12
2022-09-12T21:27:07.429Z,63.35
2022-09-12T21:37:09.128Z,63.72
2022-09-12T21:47:10.632Z,63.82
2022-09-12T21:57:12.118Z,64.26
2022-09-12T22:07:14.996Z,64.80
2022-09-12T22:17:16.791Z,65.11
2022-09-12T22:27:18.375Z,66.14
2022-09-12T22:37:23.017Z,66.19
2022-09-12T22:47:24.867Z,66.39
2022-09-12T22:57:26.831Z,66.54
2022-09-12T23:07:28.741Z,67.00
2022-09-12T23:17:30.334Z,67.03
2022-09-12T23:27:32.850Z,66.87
2022-09-12T23:37:34.665Z,66.83
2022-09-12T23:47:36.356Z,67.60
2022-09-12T23:57:39.361Z,67.65
